sensor_id;sensor_type;location;lat;lon;timestamp;P1;durP1;ratioP1;P2;durP2;ratioP2
25341;SDS011;13298;48.792;9.154;2022-11-20T00:01:17;8.48;;;5.93;;
25341;SDS011;13298;48.792;9.154;2022-11-20T00:03:46;7.45;;;5.80;;
25341;SDS011;13298;48.792;9.154;2022-11-20T00:06:13;10.10;;;5.90;;
25341;SDS011;13298;48.792;9.154;2022-11-20T00:08:42;7.57;;;5.80;;
25341;SDS011;13298;48.792;9.154;2022-11-20T00:11:10;8.35;;;5.78;;
25341;SDS011;13298;48.792;9.154;2022-11-20T00:13:45;6.75;;;4.80;;
25341;SDS011;13298;48.792;9.154;2022-11-20T00:16:14;7.25;;;5.15;;
25341;SDS011;13298;48.792;9.154;2022-11-20T00:18:43;7.10;;;5.03;;
25341;SDS011;13298;48.792;9.154;2022-11-20T00:23:43;7.70;;;4.20;;
25341;SDS011;13298;48.792;9.154;2022-11-20T00:26:11;6.57;;;4.13;;
25341;SDS011;13298;48.792;9.154;2022-11-20T00:28:39;5.18;;;4.13;;
25341;SDS011;13298;48.792;9.154;2022-11-20T00:31:07;5.95;;;3.97;;
25341;SDS011;13298;48.792;9.154;2022-11-20T00:33:39;6.20;;;4.35;;
25341;SDS011;13298;48.792;9.154;2022-11-20T00:36:07;5.38;;;3.60;;
25341;SDS011;13298;48.792;9.154;2022-11-20T00:38:38;6.00;;;3.63;;
25341;SDS011;13298;48.792;9.154;2022-11-20T00:41:05;4.88;;;3.75;;
25341;SDS011;13298;48.792;9.154;2022-11-20T00:43:33;7.20;;;4.05;;
25341;SDS011;13298;48.792;9.154;2022-11-20T00:45:59;4.93;;;3.67;;
25341;SDS011;13298;48.792;9.154;2022-11-20T00:48:33;4.25;;;3.10;;
25341;SDS011;13298;48.792;9.154;2022-11-20T00:50:59;5.80;;;3.67;;
25341;SDS011;13298;48.792;9.154;2022-11-20T00:53:25;5.90;;;2.92;;
25341;SDS011;13298;48.792;9.154;2022-11-20T00:55:58;4.60;;;3.30;;
25341;SDS011;13298;48.792;9.154;2022-11-20T00:58:31;4.15;;;2.83;;
25341;SDS011;13298;48.792;9.154;2022-11-20T01:01:03;5.03;;;2.80;;
25341;SDS011;13298;48.792;9.154;2022-11-20T01:03:39;5.82;;;3.00;;
25341;SDS011;13298;48.792;9.154;2022-11-20T01:06:09;3.05;;;2.47;;
25341;SDS011;13298;48.792;9.154;2022-11-20T01:08:38;4.07;;;2.70;;
25341;SDS011;13298;48.792;9.154;2022-11-20T01:11:11;3.63;;;2.45;;
25341;SDS011;13298;48.792;9.154;2022-11-20T01:13:49;3.90;;;2.70;;
25341;SDS011;13298;48.792;9.154;2022-11-20T01:19:16;3.58;;;2.60;;
25341;SDS011;13298;48.792;9.154;2022-11-20T01:21:45;6.05;;;2.95;;
25341;SDS011;13298;48.792;9.154;2022-11-20T01:24:15;3.85;;;2.78;;
25341;SDS011;13298;48.792;9.154;2022-11-20T01:26:43;4.03;;;2.90;;
25341;SDS011;13298;48.792;9.154;2022-11-20T01:29:12;3.35;;;2.58;;
25341;SDS011;13298;48.792;9.154;2022-11-20T01:31:41;4.72;;;2.90;;
25341;SDS011;13298;48.792;9.154;2022-11-20T01:34:25;3.67;;;2.65;;
25341;SDS011;13298;48.792;9.154;2022-11-20T01:36:51;3.85;;;2.63;;
25341;SDS011;13298;48.792;9.154;2022-11-20T01:39:19;3.90;;;2.55;;
25341;SDS011;13298;48.792;9.154;2022-11-20T01:41:50;4.75;;;3.03;;
25341;SDS011;13298;48.792;9.154;2022-11-20T01:47:39;4.80;;;2.90;;
25341;SDS011;13298;48.792;9.154;2022-11-20T01:50:42;4.47;;;2.95;;
25341;SDS011;13298;48.792;9.154;2022-11-20T01:53:02;5.20;;;3.08;;
25341;SDS011;13298;48.792;9.154;2022-11-20T01:55:33;4.40;;;3.07;;
25341;SDS011;13298;48.792;9.154;2022-11-20T01:58:04;4.10;;;2.43;;
25341;SDS011;13298;48.792;9.154;2022-11-20T02:00:31;3.30;;;2.50;;
25341;SDS011;13298;48.792;9.154;2022-11-20T02:02:57;4.22;;;2.95;;
25341;SDS011;13298;48.792;9.154;2022-11-20T02:08:10;4.85;;;2.75;;
25341;SDS011;13298;48.792;9.154;2022-11-20T02:10:36;3.15;;;2.30;;
25341;SDS011;13298;48.792;9.154;2022-11-20T02:13:02;3.53;;;2.55;;
25341;SDS011;13298;48.792;9.154;2022-11-20T02:15:47;3.88;;;2.70;;
25341;SDS011;13298;48.792;9.154;2022-11-20T02:18:14;4.63;;;2.50;;
25341;SDS011;13298;48.792;9.154;2022-11-20T02:20:42;4.75;;;2.67;;
25341;SDS011;13298;48.792;9.154;2022-11-20T02:23:12;3.75;;;2.50;;
25341;SDS011;13298;48.792;9.154;2022-11-20T02:25:48;4.50;;;2.33;;
25341;SDS011;13298;48.792;9.154;2022-11-20T02:28:16;4.68;;;2.30;;
25341;SDS011;13298;48.792;9.154;2022-11-20T02:30:42;3.13;;;2.20;;
25341;SDS011;13298;48.792;9.154;2022-11-20T02:33:08;5.20;;;2.67;;
25341;SDS011;13298;48.792;9.154;2022-11-20T02:38:00;3.40;;;2.28;;
25341;SDS011;13298;48.792;9.154;2022-11-20T02:40:27;3.53;;;2.40;;
25341;SDS011;13298;48.792;9.154;2022-11-20T02:42:54;3.05;;;2.40;;
25341;SDS011;13298;48.792;9.154;2022-11-20T02:45:21;3.25;;;2.10;;
25341;SDS011;13298;48.792;9.154;2022-11-20T02:47:48;3.25;;;2.20;;
25341;SDS011;13298;48.792;9.154;2022-11-20T02:50:15;3.53;;;2.65;;
25341;SDS011;13298;48.792;9.154;2022-11-20T02:52:41;3.67;;;2.50;;
25341;SDS011;13298;48.792;9.154;2022-11-20T02:55:07;4.55;;;2.60;;
25341;SDS011;13298;48.792;9.154;2022-11-20T02:57:33;3.78;;;2.17;;
25341;SDS011;13298;48.792;9.154;2022-11-20T02:59:59;4.65;;;2.45;;
25341;SDS011;13298;48.792;9.154;2022-11-20T03:02:24;2.53;;;1.88;;
25341;SDS011;13298;48.792;9.154;2022-11-20T03:04:50;2.85;;;2.13;;
25341;SDS011;13298;48.792;9.154;2022-11-20T03:07:16;4.93;;;2.28;;
25341;SDS011;13298;48.792;9.154;2022-11-20T03:09:41;3.80;;;2.20;;
25341;SDS011;13298;48.792;9.154;2022-11-20T03:12:07;3.80;;;2.17;;
25341;SDS011;13298;48.792;9.154;2022-11-20T03:14:33;4.05;;;2.22;;
25341;SDS011;13298;48.792;9.154;2022-11-20T03:16:59;3.25;;;2.45;;
25341;SDS011;13298;48.792;9.154;2022-11-20T03:19:25;2.85;;;2.20;;
25341;SDS011;13298;48.792;9.154;2022-11-20T03:21:51;3.30;;;2.50;;
25341;SDS011;13298;48.792;9.154;2022-11-20T03:24:16;4.07;;;2.35;;
25341;SDS011;13298;48.792;9.154;2022-11-20T03:26:42;3.08;;;2.20;;
25341;SDS011;13298;48.792;9.154;2022-11-20T03:29:08;5.65;;;2.72;;
25341;SDS011;13298;48.792;9.154;2022-11-20T03:31:37;3.65;;;2.10;;
25341;SDS011;13298;48.792;9.154;2022-11-20T03:34:05;4.23;;;2.77;;
25341;SDS011;13298;48.792;9.154;2022-11-20T03:36:33;3.05;;;2.25;;
25341;SDS011;13298;48.792;9.154;2022-11-20T03:38:59;4.28;;;2.45;;
25341;SDS011;13298;48.792;9.154;2022-11-20T03:41:27;2.67;;;2.30;;
25341;SDS011;13298;48.792;9.154;2022-11-20T03:43:56;3.53;;;2.55;;
25341;SDS011;13298;48.792;9.154;2022-11-20T03:46:24;5.13;;;2.47;;
25341;SDS011;13298;48.792;9.154;2022-11-20T03:48:51;2.80;;;2.40;;
25341;SDS011;13298;48.792;9.154;2022-11-20T03:51:18;3.83;;;2.70;;
25341;SDS011;13298;48.792;9.154;2022-11-20T03:53:47;4.03;;;2.88;;
25341;SDS011;13298;48.792;9.154;2022-11-20T03:56:16;4.18;;;2.85;;
25341;SDS011;13298;48.792;9.154;2022-11-20T03:58:44;3.33;;;2.70;;
25341;SDS011;13298;48.792;9.154;2022-11-20T04:01:13;6.03;;;3.00;;
25341;SDS011;13298;48.792;9.154;2022-11-20T04:03:42;4.35;;;2.70;;
25341;SDS011;13298;48.792;9.154;2022-11-20T04:06:16;5.30;;;2.75;;
25341;SDS011;13298;48.792;9.154;2022-11-20T04:08:54;4.00;;;2.55;;
25341;SDS011;13298;48.792;9.154;2022-11-20T04:11:22;3.15;;;2.60;;
25341;SDS011;13298;48.792;9.154;2022-11-20T04:13:54;3.85;;;2.97;;
25341;SDS011;13298;48.792;9.154;2022-11-20T04:16:25;5.63;;;2.92;;
25341;SDS011;13298;48.792;9.154;2022-11-20T04:18:55;4.30;;;3.20;;
25341;SDS011;13298;48.792;9.154;2022-11-20T04:21:23;3.63;;;2.92;;
25341;SDS011;13298;48.792;9.154;2022-11-20T04:23:50;3.78;;;2.75;;
25341;SDS011;13298;48.792;9.154;2022-11-20T04:26:17;5.90;;;3.55;;
25341;SDS011;13298;48.792;9.154;2022-11-20T04:28:44;4.70;;;3.70;;
25341;SDS011;13298;48.792;9.154;2022-11-20T04:31:11;4.65;;;3.10;;
25341;SDS011;13298;48.792;9.154;2022-11-20T04:33:40;4.85;;;3.28;;
25341;SDS011;13298;48.792;9.154;2022-11-20T04:36:10;4.13;;;3.10;;
25341;SDS011;13298;48.792;9.154;2022-11-20T04:38:41;4.40;;;3.25;;
25341;SDS011;13298;48.792;9.154;2022-11-20T04:41:09;4.63;;;3.20;;
25341;SDS011;13298;48.792;9.154;2022-11-20T04:43:41;4.97;;;3.30;;
25341;SDS011;13298;48.792;9.154;2022-11-20T04:46:06;4.28;;;3.30;;
25341;SDS011;13298;48.792;9.154;2022-11-20T04:48:32;3.75;;;3.00;;
25341;SDS011;13298;48.792;9.154;2022-11-20T04:51:02;3.75;;;3.17;;
25341;SDS011;13298;48.792;9.154;2022-11-20T04:53:29;5.43;;;2.97;;
25341;SDS011;13298;48.792;9.154;2022-11-20T04:56:01;3.83;;;3.08;;
25341;SDS011;13298;48.792;9.154;2022-11-20T04:58:28;4.20;;;3.17;;
25341;SDS011;13298;48.792;9.154;2022-11-20T05:01:04;4.30;;;3.03;;
25341;SDS011;13298;48.792;9.154;2022-11-20T05:03:37;3.85;;;2.97;;
25341;SDS011;13298;48.792;9.154;2022-11-20T05:06:04;5.05;;;2.72;;
25341;SDS011;13298;48.792;9.154;2022-11-20T05:08:33;5.70;;;2.60;;
25341;SDS011;13298;48.792;9.154;2022-11-20T05:11:06;3.28;;;2.78;;
25341;SDS011;13298;48.792;9.154;2022-11-20T05:13:37;4.50;;;2.75;;
25341;SDS011;13298;48.792;9.154;2022-11-20T05:16:04;4.68;;;2.58;;
25341;SDS011;13298;48.792;9.154;2022-11-20T05:18:35;4.30;;;2.95;;
25341;SDS011;13298;48.792;9.154;2022-11-20T05:21:02;4.65;;;3.03;;
25341;SDS011;13298;48.792;9.154;2022-11-20T05:23:29;3.95;;;2.47;;
25341;SDS011;13298;48.792;9.154;2022-11-20T05:25:56;4.45;;;2.67;;
25341;SDS011;13298;48.792;9.154;2022-11-20T05:28:23;4.18;;;2.55;;
25341;SDS011;13298;48.792;9.154;2022-11-20T05:30:49;3.40;;;2.65;;
25341;SDS011;13298;48.792;9.154;2022-11-20T05:33:16;2.67;;;2.40;;
25341;SDS011;13298;48.792;9.154;2022-11-20T05:35:42;4.45;;;2.50;;
25341;SDS011;13298;48.792;9.154;2022-11-20T05:38:07;3.28;;;2.40;;
25341;SDS011;13298;48.792;9.154;2022-11-20T05:40:33;5.05;;;2.65;;
25341;SDS011;13298;48.792;9.154;2022-11-20T05:42:59;4.95;;;2.67;;
25341;SDS011;13298;48.792;9.154;2022-11-20T05:45:25;3.47;;;2.47;;
25341;SDS011;13298;48.792;9.154;2022-11-20T05:47:51;4.85;;;2.70;;
25341;SDS011;13298;48.792;9.154;2022-11-20T05:50:17;4.63;;;2.50;;
25341;SDS011;13298;48.792;9.154;2022-11-20T05:52:43;4.03;;;2.50;;
25341;SDS011;13298;48.792;9.154;2022-11-20T05:55:08;4.03;;;2.05;;
25341;SDS011;13298;48.792;9.154;2022-11-20T05:57:34;4.07;;;2.70;;
25341;SDS011;13298;48.792;9.154;2022-11-20T06:00:00;2.72;;;2.28;;
25341;SDS011;13298;48.792;9.154;2022-11-20T06:02:26;2.35;;;1.85;;
25341;SDS011;13298;48.792;9.154;2022-11-20T06:04:52;3.92;;;2.20;;
25341;SDS011;13298;48.792;9.154;2022-11-20T06:07:18;4.07;;;2.45;;
25341;SDS011;13298;48.792;9.154;2022-11-20T06:09:43;3.10;;;2.47;;
25341;SDS011;13298;48.792;9.154;2022-11-20T06:12:09;6.15;;;2.22;;
25341;SDS011;13298;48.792;9.154;2022-11-20T06:14:35;3.20;;;2.15;;
25341;SDS011;13298;48.792;9.154;2022-11-20T06:17:01;3.38;;;2.17;;
25341;SDS011;13298;48.792;9.154;2022-11-20T06:19:27;3.03;;;1.95;;
25341;SDS011;13298;48.792;9.154;2022-11-20T06:21:53;2.83;;;2.10;;
25341;SDS011;13298;48.792;9.154;2022-11-20T06:24:18;4.07;;;2.47;;
25341;SDS011;13298;48.792;9.154;2022-11-20T06:26:44;3.25;;;2.10;;
25341;SDS011;13298;48.792;9.154;2022-11-20T06:29:10;4.45;;;2.28;;
25341;SDS011;13298;48.792;9.154;2022-11-20T06:31:36;2.42;;;2.08;;
25341;SDS011;13298;48.792;9.154;2022-11-20T06:34:03;4.45;;;2.38;;
25341;SDS011;13298;48.792;9.154;2022-11-20T06:36:30;4.55;;;2.33;;
25341;SDS011;13298;48.792;9.154;2022-11-20T06:38:57;3.03;;;2.13;;
25341;SDS011;13298;48.792;9.154;2022-11-20T06:41:22;2.50;;;2.00;;
25341;SDS011;13298;48.792;9.154;2022-11-20T06:43:48;2.70;;;2.00;;
25341;SDS011;13298;48.792;9.154;2022-11-20T06:46:15;2.55;;;1.95;;
25341;SDS011;13298;48.792;9.154;2022-11-20T06:48:42;3.65;;;2.00;;
25341;SDS011;13298;48.792;9.154;2022-11-20T06:51:08;4.20;;;2.00;;
25341;SDS011;13298;48.792;9.154;2022-11-20T06:53:35;3.17;;;2.10;;
25341;SDS011;13298;48.792;9.154;2022-11-20T06:56:01;4.28;;;2.08;;
25341;SDS011;13298;48.792;9.154;2022-11-20T06:58:28;3.60;;;1.65;;
25341;SDS011;13298;48.792;9.154;2022-11-20T07:00:59;4.60;;;1.92;;
25341;SDS011;13298;48.792;9.154;2022-11-20T07:03:27;2.28;;;1.60;;
25341;SDS011;13298;48.792;9.154;2022-11-20T07:05:56;1.98;;;1.65;;
25341;SDS011;13298;48.792;9.154;2022-11-20T07:08:23;3.35;;;1.80;;
25341;SDS011;13298;48.792;9.154;2022-11-20T07:10:49;2.67;;;1.95;;
25341;SDS011;13298;48.792;9.154;2022-11-20T07:13:15;3.67;;;1.77;;
25341;SDS011;13298;48.792;9.154;2022-11-20T07:15:41;3.78;;;2.33;;
25341;SDS011;13298;48.792;9.154;2022-11-20T07:18:06;2.45;;;1.73;;
25341;SDS011;13298;48.792;9.154;2022-11-20T07:20:32;2.30;;;1.55;;
25341;SDS011;13298;48.792;9.154;2022-11-20T07:22:58;2.40;;;1.77;;
25341;SDS011;13298;48.792;9.154;2022-11-20T07:25:24;3.55;;;1.75;;
25341;SDS011;13298;48.792;9.154;2022-11-20T07:27:52;2.30;;;1.67;;
25341;SDS011;13298;48.792;9.154;2022-11-20T07:30:24;2.92;;;1.80;;
25341;SDS011;13298;48.792;9.154;2022-11-20T07:32:51;2.10;;;1.60;;
25341;SDS011;13298;48.792;9.154;2022-11-20T07:35:17;2.65;;;1.73;;
25341;SDS011;13298;48.792;9.154;2022-11-20T07:37:43;3.72;;;1.55;;
25341;SDS011;13298;48.792;9.154;2022-11-20T07:40:10;3.50;;;1.92;;
25341;SDS011;13298;48.792;9.154;2022-11-20T07:42:49;2.80;;;2.20;;
25341;SDS011;13298;48.792;9.154;2022-11-20T07:45:20;4.75;;;1.80;;
25341;SDS011;13298;48.792;9.154;2022-11-20T07:47:48;2.35;;;1.60;;
25341;SDS011;13298;48.792;9.154;2022-11-20T07:50:15;3.95;;;1.67;;
25341;SDS011;13298;48.792;9.154;2022-11-20T07:52:41;4.90;;;1.60;;
25341;SDS011;13298;48.792;9.154;2022-11-20T07:55:08;5.30;;;1.95;;
25341;SDS011;13298;48.792;9.154;2022-11-20T07:57:35;1.50;;;1.40;;
25341;SDS011;13298;48.792;9.154;2022-11-20T08:00:00;2.33;;;1.35;;
25341;SDS011;13298;48.792;9.154;2022-11-20T08:02:27;3.40;;;1.45;;
25341;SDS011;13298;48.792;9.154;2022-11-20T08:04:52;2.80;;;1.70;;
25341;SDS011;13298;48.792;9.154;2022-11-20T08:07:18;3.28;;;1.80;;
25341;SDS011;13298;48.792;9.154;2022-11-20T08:09:44;3.08;;;1.95;;
25341;SDS011;13298;48.792;9.154;2022-11-20T08:12:15;2.95;;;1.80;;
25341;SDS011;13298;48.792;9.154;2022-11-20T08:15:04;3.50;;;1.55;;
25341;SDS011;13298;48.792;9.154;2022-11-20T08:17:31;2.95;;;1.40;;
25341;SDS011;13298;48.792;9.154;2022-11-20T08:19:57;2.55;;;1.63;;
25341;SDS011;13298;48.792;9.154;2022-11-20T08:22:23;3.15;;;1.50;;
25341;SDS011;13298;48.792;9.154;2022-11-20T08:24:49;1.35;;;1.15;;
25341;SDS011;13298;48.792;9.154;2022-11-20T08:27:15;3.13;;;1.48;;
25341;SDS011;13298;48.792;9.154;2022-11-20T08:29:41;3.92;;;1.50;;
25341;SDS011;13298;48.792;9.154;2022-11-20T08:32:06;2.08;;;1.38;;
25341;SDS011;13298;48.792;9.154;2022-11-20T08:34:32;2.22;;;1.27;;
25341;SDS011;13298;48.792;9.154;2022-11-20T08:36:58;2.40;;;1.15;;
25341;SDS011;13298;48.792;9.154;2022-11-20T08:39:23;2.95;;;1.23;;
25341;SDS011;13298;48.792;9.154;2022-11-20T08:41:49;1.95;;;1.40;;
25341;SDS011;13298;48.792;9.154;2022-11-20T08:44:15;1.67;;;1.15;;
25341;SDS011;13298;48.792;9.154;2022-11-20T08:46:41;2.20;;;1.13;;
25341;SDS011;13298;48.792;9.154;2022-11-20T08:49:09;1.63;;;1.02;;
25341;SDS011;13298;48.792;9.154;2022-11-20T08:51:37;3.70;;;1.17;;
25341;SDS011;13298;48.792;9.154;2022-11-20T08:54:03;1.90;;;0.90;;
25341;SDS011;13298;48.792;9.154;2022-11-20T08:56:30;1.95;;;1.00;;
25341;SDS011;13298;48.792;9.154;2022-11-20T08:59:16;2.92;;;0.90;;
25341;SDS011;13298;48.792;9.154;2022-11-20T09:01:42;3.10;;;1.13;;
25341;SDS011;13298;48.792;9.154;2022-11-20T09:04:08;1.75;;;1.00;;
25341;SDS011;13298;48.792;9.154;2022-11-20T09:06:33;1.38;;;1.00;;
25341;SDS011;13298;48.792;9.154;2022-11-20T09:08:59;1.45;;;0.85;;
25341;SDS011;13298;48.792;9.154;2022-11-20T09:11:25;1.10;;;0.80;;
25341;SDS011;13298;48.792;9.154;2022-11-20T09:13:50;1.25;;;0.82;;
25341;SDS011;13298;48.792;9.154;2022-11-20T09:16:16;1.55;;;0.75;;
25341;SDS011;13298;48.792;9.154;2022-11-20T09:18:42;1.25;;;0.60;;
25341;SDS011;13298;48.792;9.154;2022-11-20T09:21:11;1.85;;;0.82;;
25341;SDS011;13298;48.792;9.154;2022-11-20T09:23:38;0.95;;;0.60;;
25341;SDS011;13298;48.792;9.154;2022-11-20T09:26:05;0.60;;;0.57;;
25341;SDS011;13298;48.792;9.154;2022-11-20T09:28:34;2.08;;;0.85;;
25341;SDS011;13298;48.792;9.154;2022-11-20T09:31:00;0.70;;;0.50;;
25341;SDS011;13298;48.792;9.154;2022-11-20T09:33:30;0.63;;;0.60;;
25341;SDS011;13298;48.792;9.154;2022-11-20T09:35:56;1.10;;;0.70;;
25341;SDS011;13298;48.792;9.154;2022-11-20T09:38:21;1.27;;;0.63;;
25341;SDS011;13298;48.792;9.154;2022-11-20T09:40:50;0.90;;;0.60;;
25341;SDS011;13298;48.792;9.154;2022-11-20T09:43:26;3.95;;;0.60;;
25341;SDS011;13298;48.792;9.154;2022-11-20T09:46:26;2.00;;;0.57;;
25341;SDS011;13298;48.792;9.154;2022-11-20T09:49:14;0.70;;;0.50;;
25341;SDS011;13298;48.792;9.154;2022-11-20T09:55:20;1.15;;;0.45;;
25341;SDS011;13298;48.792;9.154;2022-11-20T09:57:46;2.00;;;1.10;;
25341;SDS011;13298;48.792;9.154;2022-11-20T10:00:16;0.70;;;0.50;;
25341;SDS011;13298;48.792;9.154;2022-11-20T10:10:44;0.80;;;0.35;;
25341;SDS011;13298;48.792;9.154;2022-11-20T10:23:25;0.80;;;0.50;;
25341;SDS011;13298;48.792;9.154;2022-11-20T10:26:01;0.40;;;0.40;;
25341;SDS011;13298;48.792;9.154;2022-11-20T10:31:33;1.20;;;0.80;;
25341;SDS011;13298;48.792;9.154;2022-11-20T10:34:05;0.75;;;0.60;;
25341;SDS011;13298;48.792;9.154;2022-11-20T10:36:44;1.33;;;0.60;;
25341;SDS011;13298;48.792;9.154;2022-11-20T10:39:24;1.38;;;0.70;;
25341;SDS011;13298;48.792;9.154;2022-11-20T10:42:02;0.55;;;0.30;;
25341;SDS011;13298;48.792;9.154;2022-11-20T10:44:28;1.00;;;0.80;;
25341;SDS011;13298;48.792;9.154;2022-11-20T10:47:17;1.00;;;0.70;;
25341;SDS011;13298;48.792;9.154;2022-11-20T10:49:45;0.93;;;0.65;;
25341;SDS011;13298;48.792;9.154;2022-11-20T10:55:50;1.38;;;0.70;;
25341;SDS011;13298;48.792;9.154;2022-11-20T10:58:30;1.13;;;0.55;;
25341;SDS011;13298;48.792;9.154;2022-11-20T11:01:39;1.13;;;0.63;;
25341;SDS011;13298;48.792;9.154;2022-11-20T11:04:13;2.33;;;0.73;;
25341;SDS011;13298;48.792;9.154;2022-11-20T11:10:19;1.17;;;0.80;;
25341;SDS011;13298;48.792;9.154;2022-11-20T11:13:06;2.00;;;0.82;;
25341;SDS011;13298;48.792;9.154;2022-11-20T11:15:39;1.70;;;0.65;;
25341;SDS011;13298;48.792;9.154;2022-11-20T11:18:22;0.90;;;0.63;;
25341;SDS011;13298;48.792;9.154;2022-11-20T11:21:02;0.82;;;0.70;;
25341;SDS011;13298;48.792;9.154;2022-11-20T11:25:57;4.40;;;0.98;;
25341;SDS011;13298;48.792;9.154;2022-11-20T11:28:25;1.35;;;0.80;;
25341;SDS011;13298;48.792;9.154;2022-11-20T11:30:53;3.45;;;0.90;;
25341;SDS011;13298;48.792;9.154;2022-11-20T11:33:23;2.35;;;0.88;;
25341;SDS011;13298;48.792;9.154;2022-11-20T11:35:55;2.38;;;1.10;;
25341;SDS011;13298;48.792;9.154;2022-11-20T11:38:29;2.70;;;1.20;;
25341;SDS011;13298;48.792;9.154;2022-11-20T11:41:03;1.50;;;1.10;;
25341;SDS011;13298;48.792;9.154;2022-11-20T11:43:32;3.20;;;1.30;;
25341;SDS011;13298;48.792;9.154;2022-11-20T11:49:08;4.20;;;1.52;;
25341;SDS011;13298;48.792;9.154;2022-11-20T11:51:46;3.65;;;1.35;;
25341;SDS011;13298;48.792;9.154;2022-11-20T11:54:41;2.78;;;1.60;;
25341;SDS011;13298;48.792;9.154;2022-11-20T12:00:14;4.88;;;1.45;;
25341;SDS011;13298;48.792;9.154;2022-11-20T12:07:56;2.13;;;1.10;;
25341;SDS011;13298;48.792;9.154;2022-11-20T12:15:58;3.15;;;0.82;;
25341;SDS011;13298;48.792;9.154;2022-11-20T12:18:25;3.80;;;0.95;;
25341;SDS011;13298;48.792;9.154;2022-11-20T12:23:56;4.85;;;0.80;;
25341;SDS011;13298;48.792;9.154;2022-11-20T12:26:43;2.10;;;0.98;;
25341;SDS011;13298;48.792;9.154;2022-11-20T12:29:35;1.77;;;1.05;;
25341;SDS011;13298;48.792;9.154;2022-11-20T12:44:47;2.30;;;0.90;;
25341;SDS011;13298;48.792;9.154;2022-11-20T12:50:41;1.60;;;0.63;;
25341;SDS011;13298;48.792;9.154;2022-11-20T13:05:48;1.67;;;0.70;;
25341;SDS011;13298;48.792;9.154;2022-11-20T13:08:23;1.58;;;0.68;;
25341;SDS011;13298;48.792;9.154;2022-11-20T13:16:34;3.05;;;0.80;;
25341;SDS011;13298;48.792;9.154;2022-11-20T13:19:17;1.73;;;0.63;;
25341;SDS011;13298;48.792;9.154;2022-11-20T13:21:44;2.03;;;0.73;;
25341;SDS011;13298;48.792;9.154;2022-11-20T13:24:21;4.47;;;0.73;;
25341;SDS011;13298;48.792;9.154;2022-11-20T13:29:26;3.83;;;0.60;;
25341;SDS011;13298;48.792;9.154;2022-11-20T13:32:00;1.50;;;0.63;;
25341;SDS011;13298;48.792;9.154;2022-11-20T13:34:55;3.42;;;0.80;;
25341;SDS011;13298;48.792;9.154;2022-11-20T13:42:43;3.00;;;0.75;;
25341;SDS011;13298;48.792;9.154;2022-11-20T13:45:35;0.55;;;0.40;;
25341;SDS011;13298;48.792;9.154;2022-11-20T13:48:03;1.15;;;0.50;;
25341;SDS011;13298;48.792;9.154;2022-11-20T13:51:06;3.10;;;0.75;;
25341;SDS011;13298;48.792;9.154;2022-11-20T13:53:47;4.10;;;0.85;;
25341;SDS011;13298;48.792;9.154;2022-11-20T13:56:40;1.27;;;0.52;;
25341;SDS011;13298;48.792;9.154;2022-11-20T14:02:18;1.50;;;0.57;;
25341;SDS011;13298;48.792;9.154;2022-11-20T14:04:48;1.17;;;0.65;;
25341;SDS011;13298;48.792;9.154;2022-11-20T14:07:17;0.98;;;0.57;;
25341;SDS011;13298;48.792;9.154;2022-11-20T14:09:56;1.67;;;0.65;;
25341;SDS011;13298;48.792;9.154;2022-11-20T14:12:27;2.78;;;0.60;;
25341;SDS011;13298;48.792;9.154;2022-11-20T14:14:56;2.67;;;0.90;;
25341;SDS011;13298;48.792;9.154;2022-11-20T14:19:53;2.88;;;0.63;;
25341;SDS011;13298;48.792;9.154;2022-11-20T14:22:25;1.70;;;0.60;;
25341;SDS011;13298;48.792;9.154;2022-11-20T14:25:02;0.60;;;0.45;;
25341;SDS011;13298;48.792;9.154;2022-11-20T14:27:57;2.80;;;0.80;;
25341;SDS011;13298;48.792;9.154;2022-11-20T14:30:29;2.42;;;0.80;;
25341;SDS011;13298;48.792;9.154;2022-11-20T14:33:09;1.02;;;0.57;;
25341;SDS011;13298;48.792;9.154;2022-11-20T14:35:40;2.03;;;0.85;;
25341;SDS011;13298;48.792;9.154;2022-11-20T14:38:14;2.15;;;0.70;;
25341;SDS011;13298;48.792;9.154;2022-11-20T14:40:43;1.67;;;0.60;;
25341;SDS011;13298;48.792;9.154;2022-11-20T14:43:16;1.40;;;0.80;;
25341;SDS011;13298;48.792;9.154;2022-11-20T14:45:58;2.40;;;0.80;;
25341;SDS011;13298;48.792;9.154;2022-11-20T14:48:31;1.45;;;0.82;;
25341;SDS011;13298;48.792;9.154;2022-11-20T14:51:11;2.22;;;0.95;;
25341;SDS011;13298;48.792;9.154;2022-11-20T14:53:48;2.90;;;1.40;;
25341;SDS011;13298;48.792;9.154;2022-11-20T14:56:14;2.33;;;1.02;;
25341;SDS011;13298;48.792;9.154;2022-11-20T14:58:55;2.80;;;1.00;;
25341;SDS011;13298;48.792;9.154;2022-11-20T15:01:28;2.22;;;1.17;;
25341;SDS011;13298;48.792;9.154;2022-11-20T15:04:00;1.65;;;1.05;;
25341;SDS011;13298;48.792;9.154;2022-11-20T15:06:35;2.65;;;1.00;;
25341;SDS011;13298;48.792;9.154;2022-11-20T15:09:03;1.48;;;0.90;;
25341;SDS011;13298;48.792;9.154;2022-11-20T15:11:31;3.10;;;0.90;;
25341;SDS011;13298;48.792;9.154;2022-11-20T15:14:03;2.10;;;1.48;;
25341;SDS011;13298;48.792;9.154;2022-11-20T15:16:31;2.42;;;1.20;;
25341;SDS011;13298;48.792;9.154;2022-11-20T15:18:58;2.17;;;1.13;;
25341;SDS011;13298;48.792;9.154;2022-11-20T15:21:25;2.00;;;1.08;;
25341;SDS011;13298;48.792;9.154;2022-11-20T15:23:50;1.80;;;1.10;;
25341;SDS011;13298;48.792;9.154;2022-11-20T15:26:22;1.55;;;1.20;;
25341;SDS011;13298;48.792;9.154;2022-11-20T15:28:50;1.85;;;1.00;;
25341;SDS011;13298;48.792;9.154;2022-11-20T15:31:19;2.97;;;1.00;;
25341;SDS011;13298;48.792;9.154;2022-11-20T15:33:47;1.90;;;1.02;;
25341;SDS011;13298;48.792;9.154;2022-11-20T15:36:13;1.35;;;1.02;;
25341;SDS011;13298;48.792;9.154;2022-11-20T15:38:39;2.80;;;1.02;;
25341;SDS011;13298;48.792;9.154;2022-11-20T15:41:05;1.50;;;0.82;;
25341;SDS011;13298;48.792;9.154;2022-11-20T15:43:31;1.25;;;1.13;;
25341;SDS011;13298;48.792;9.154;2022-11-20T15:45:58;2.20;;;1.23;;
25341;SDS011;13298;48.792;9.154;2022-11-20T15:51:24;2.28;;;1.27;;
25341;SDS011;13298;48.792;9.154;2022-11-20T15:54:00;4.45;;;1.42;;
25341;SDS011;13298;48.792;9.154;2022-11-20T15:56:34;2.13;;;1.23;;
25341;SDS011;13298;48.792;9.154;2022-11-20T15:59:00;1.75;;;1.00;;
25341;SDS011;13298;48.792;9.154;2022-11-20T16:01:26;1.70;;;1.05;;
25341;SDS011;13298;48.792;9.154;2022-11-20T16:03:51;1.63;;;1.10;;
25341;SDS011;13298;48.792;9.154;2022-11-20T16:06:17;1.58;;;1.20;;
25341;SDS011;13298;48.792;9.154;2022-11-20T16:08:43;2.78;;;1.00;;
25341;SDS011;13298;48.792;9.154;2022-11-20T16:11:12;1.30;;;1.10;;
25341;SDS011;13298;48.792;9.154;2022-11-20T16:13:40;2.78;;;0.90;;
25341;SDS011;13298;48.792;9.154;2022-11-20T16:16:33;2.35;;;1.25;;
25341;SDS011;13298;48.792;9.154;2022-11-20T16:19:01;3.70;;;1.50;;
25341;SDS011;13298;48.792;9.154;2022-11-20T16:21:27;1.92;;;1.38;;
25341;SDS011;13298;48.792;9.154;2022-11-20T16:23:57;2.05;;;1.30;;
25341;SDS011;13298;48.792;9.154;2022-11-20T16:26:24;2.38;;;1.20;;
25341;SDS011;13298;48.792;9.154;2022-11-20T16:28:50;4.30;;;1.40;;
25341;SDS011;13298;48.792;9.154;2022-11-20T16:31:17;2.70;;;1.52;;
25341;SDS011;13298;48.792;9.154;2022-11-20T16:33:53;2.67;;;1.40;;
25341;SDS011;13298;48.792;9.154;2022-11-20T16:36:22;4.72;;;2.38;;
25341;SDS011;13298;48.792;9.154;2022-11-20T16:38:53;6.10;;;2.55;;
25341;SDS011;13298;48.792;9.154;2022-11-20T16:41:21;8.50;;;2.90;;
25341;SDS011;13298;48.792;9.154;2022-11-20T16:43:51;4.22;;;2.20;;
25341;SDS011;13298;48.792;9.154;2022-11-20T16:46:22;8.75;;;2.40;;
25341;SDS011;13298;48.792;9.154;2022-11-20T16:48:54;4.82;;;2.00;;
25341;SDS011;13298;48.792;9.154;2022-11-20T16:51:25;4.75;;;2.22;;
25341;SDS011;13298;48.792;9.154;2022-11-20T16:53:52;12.52;;;2.72;;
25341;SDS011;13298;48.792;9.154;2022-11-20T16:56:22;2.85;;;1.92;;
25341;SDS011;13298;48.792;9.154;2022-11-20T16:58:50;5.00;;;1.95;;
25341;SDS011;13298;48.792;9.154;2022-11-20T17:01:20;5.10;;;2.33;;
25341;SDS011;13298;48.792;9.154;2022-11-20T17:03:57;3.53;;;1.92;;